Friday, November 24, 2017, 5:41 AM GMT
Back to Local

CWQV, Puinte Claveau

Location: , , Canada Lat: 48.267
Local Time: 5:41 AM GMT ( 5:41 GMT) Lon: -70.117
Time Zone: GMT Elev: 0 ft

Show me the last for .
Show Coded

Time T Td Feel RH Dir Speed Gust Alt SLP Vis Weather Sky Remarks
2017-11-24 05:00 25 21 19 87 70° 5 - - - 0 None
2017-11-24 04:00 26 21 - 81 - Calm - - - 0 None
2017-11-24 03:00 26 22 - 85 360° 1 - - - 0 None
2017-11-24 02:00 24 20 - 82 - Calm - - - 0 None
2017-11-24 01:00 24 19 - 80 340° 1 - - - 0 None
2017-11-24 00:00 25 17 - 73 360° 1 - - - 0 None
2017-11-23 23:00 25 16 21 69 340° 3 - - - 0 None
2017-11-23 22:00 25 16 - 68 340° 2 - - - 0 None
2017-11-23 21:00 28 15 - 59 360° 2 - - - 0 None
2017-11-23 20:00 26 15 - 61 290° 2 - - - 0 None
2017-11-23 19:00 26 15 18 61 280° 8 - - - 0 None
2017-11-23 18:00 26 15 12 63 280° 13 20 - - 0 Peak wind: 26 mph (23 kts) from 280° at 14 min
2017-11-23 17:00 26 15 11 61 280° 18 28 - - 0 Peak wind: 29 mph (26 kts) from 280° at 04 min
2017-11-23 16:00 25 16 8 68 280° 22 29 - - 0 Peak wind: 31 mph (27 kts) from 280° at 28 min
2017-11-23 15:00 23 16 6 72 280° 18 29 - - 0 Peak wind: 33 mph (29 kts) from 280° at 05 min
2017-11-23 14:00 24 18 6 75 280° 26 33 - - 0 Peak wind: 34 mph (30 kts) from 290° at 45 min
2017-11-23 13:00 23 17 6 77 270° 23 29 - - 0 Peak wind: 29 mph (26 kts) from 270° at 35 min
2017-11-23 12:00 23 16 6 75 270° 21 26 - - 0 Peak wind: 28 mph (25 kts) from 270° at 09 min
2017-11-23 11:00 24 17 7 73 270° 22 29 - - 0 Peak wind: 34 mph (30 kts) from 270° at 23 min
2017-11-23 10:00 24 13 5 64 280° 22 33 - - 0 Peak wind: 37 mph (33 kts) from 280° at 43 min
2017-11-23 09:00 24 19 7 78 270° 25 31 - - 0 Peak wind: 37 mph (33 kts) from 280° at 18 min
2017-11-23 08:00 25 19 6 76 280° 30 39 - - 0 Peak wind: 39 mph (34 kts) from 290° at 53 min
2017-11-23 07:00 25 17 7 70 280° 25 33 - - 0 Peak wind: 33 mph (29 kts) from 280° at 21 min
2017-11-23 06:00 25 18 8 73 280° 28 33 - - 0 Peak wind: 37 mph (33 kts) from 280° at 17 min

Support USWX by starting your Amazon purchase here.